createdAt,value
2018-05-27T00:08:32.000Z,24.9
2018-05-27T00:18:32.000Z,24.9
2018-05-27T00:28:35.000Z,24.9
2018-05-27T00:38:32.000Z,24.9
2018-05-27T00:48:32.000Z,24.9
2018-05-27T00:58:32.000Z,24.9
2018-05-27T01:08:32.000Z,24.8
2018-05-27T01:18:32.000Z,24.7
2018-05-27T01:28:32.000Z,24.7
2018-05-27T01:38:32.000Z,24.7
2018-05-27T01:48:32.000Z,24.7
2018-05-27T01:58:32.000Z,24.6
2018-05-27T02:08:32.000Z,24.6
2018-05-27T02:18:32.000Z,24.7
2018-05-27T02:28:32.000Z,24.7
2018-05-27T02:38:32.000Z,24.5
2018-05-27T02:48:32.000Z,24.4
2018-05-27T02:58:33.000Z,24.4
2018-05-27T03:08:32.000Z,24.4
2018-05-27T03:18:32.000Z,24.3
2018-05-27T03:28:32.000Z,24.2
2018-05-27T03:38:33.000Z,24.2
2018-05-27T03:48:36.000Z,24.3
2018-05-27T03:58:33.000Z,24.3
2018-05-27T04:08:33.000Z,24.3
2018-05-27T04:18:33.000Z,24.2
2018-05-27T04:28:33.000Z,24.2
2018-05-27T04:38:33.000Z,24.2
2018-05-27T04:48:33.000Z,24.3
2018-05-27T04:58:33.000Z,24.3
2018-05-27T05:08:33.000Z,24.4
2018-05-27T05:18:33.000Z,24.5
2018-05-27T05:28:33.000Z,24.6
2018-05-27T05:38:33.000Z,24.8
2018-05-27T05:48:33.000Z,24.9
2018-05-27T05:58:33.000Z,24.9
2018-05-27T06:08:33.000Z,25
2018-05-27T06:18:33.000Z,25
2018-05-27T06:28:33.000Z,25.1
2018-05-27T06:38:33.000Z,25.2
2018-05-27T06:48:33.000Z,25.2
2018-05-27T07:08:33.000Z,25.2
2018-05-27T07:18:33.000Z,25.2
2018-05-27T07:28:33.000Z,25.2
2018-05-27T07:38:33.000Z,25.2
2018-05-27T07:48:33.000Z,25.2
2018-05-27T07:58:33.000Z,25.1
2018-05-27T08:08:37.000Z,25.3
2018-05-27T08:18:33.000Z,25.4
2018-05-27T08:28:33.000Z,25.2
2018-05-27T08:38:33.000Z,25.3
2018-05-27T08:48:33.000Z,25.3
2018-05-27T08:58:33.000Z,25.3
2018-05-27T09:08:33.000Z,25.3
2018-05-27T09:18:33.000Z,25.4
2018-05-27T09:28:33.000Z,25.4
2018-05-27T09:38:33.000Z,25.3
2018-05-27T09:48:33.000Z,25.4
2018-05-27T09:58:33.000Z,25.4
2018-05-27T10:08:34.000Z,25.4
2018-05-27T10:18:34.000Z,25.3
2018-05-27T10:28:34.000Z,25.3
2018-05-27T10:38:34.000Z,25.4
2018-05-27T10:48:34.000Z,25.4
2018-05-27T10:58:34.000Z,25.4
2018-05-27T11:08:34.000Z,25.5
2018-05-27T11:18:34.000Z,25.5
2018-05-27T11:28:34.000Z,25.5
2018-05-27T11:38:34.000Z,25.6
2018-05-27T11:48:34.000Z,25.6
2018-05-27T11:58:34.000Z,25.6
2018-05-27T12:08:34.000Z,25.5
2018-05-27T12:18:34.000Z,25.5
2018-05-27T12:28:34.000Z,25.5
2018-05-27T12:38:34.000Z,25.5
2018-05-27T12:48:34.000Z,25.5
2018-05-27T12:58:34.000Z,25.5
2018-05-27T13:08:34.000Z,25.5
2018-05-27T13:18:34.000Z,25.5
2018-05-27T13:28:34.000Z,25.5
2018-05-27T13:38:34.000Z,25.6
2018-05-27T13:48:34.000Z,25.5
2018-05-27T13:58:34.000Z,25.5
2018-05-27T14:08:34.000Z,25.5
2018-05-27T14:18:34.000Z,25.6
2018-05-27T14:28:34.000Z,25.5
2018-05-27T14:38:34.000Z,25.6
2018-05-27T14:48:34.000Z,25.7
2018-05-27T14:58:34.000Z,25.8
2018-05-27T15:08:34.000Z,25.6
2018-05-27T15:18:34.000Z,25.6
2018-05-27T15:28:34.000Z,25.6
2018-05-27T15:38:34.000Z,25.5
2018-05-27T15:48:34.000Z,25.5
2018-05-27T15:58:34.000Z,25.5
2018-05-27T16:08:34.000Z,25.5
2018-05-27T16:18:34.000Z,25.5
2018-05-27T16:28:34.000Z,25.4
2018-05-27T16:38:34.000Z,25.4
2018-05-27T16:48:34.000Z,25.6
2018-05-27T16:58:37.000Z,25.6
2018-05-27T17:08:35.000Z,25.7
2018-05-27T17:18:35.000Z,25.7
2018-05-27T17:28:35.000Z,25.7
2018-05-27T17:38:35.000Z,25.4
2018-05-27T17:48:35.000Z,25.5
2018-05-27T17:58:35.000Z,25.4
2018-05-27T18:08:35.000Z,25.5
2018-05-27T18:18:35.000Z,25.5
2018-05-27T18:28:35.000Z,25.5
2018-05-27T18:38:35.000Z,25.5
2018-05-27T18:48:36.000Z,25.6
2018-05-27T18:58:35.000Z,25.3
2018-05-27T19:08:35.000Z,25.4
2018-05-27T19:18:35.000Z,25.4
2018-05-27T19:28:35.000Z,25.4
2018-05-27T19:38:35.000Z,25.4
2018-05-27T19:48:35.000Z,25.4
2018-05-27T19:58:35.000Z,25.3
2018-05-27T20:08:35.000Z,25.3
2018-05-27T20:18:35.000Z,25.3
2018-05-27T20:28:36.000Z,25.4
2018-05-27T20:48:35.000Z,25.4
2018-05-27T20:58:35.000Z,25.3
2018-05-27T21:08:37.000Z,25.4
2018-05-27T21:18:35.000Z,25.5
2018-05-27T21:28:35.000Z,25.6
2018-05-27T21:38:35.000Z,25.5
2018-05-27T21:48:38.000Z,25.4
2018-05-27T21:58:35.000Z,25.3
2018-05-27T22:08:35.000Z,25.3
2018-05-27T22:18:36.000Z,25.3
2018-05-27T22:28:35.000Z,25.2
2018-05-27T22:38:35.000Z,25.3
2018-05-27T22:48:35.000Z,25.2
2018-05-27T22:58:35.000Z,25.1
2018-05-27T23:18:35.000Z,25.1
2018-05-27T23:28:35.000Z,25.1
2018-05-27T23:38:35.000Z,25
2018-05-27T23:48:36.000Z,25.1
2018-05-27T23:58:36.000Z,25.1
